Time;durP1;ratioP1;P1;durP2;ratioP2;P2;SDS_P1;SDS_P2;PMS_P1;PMS_P2;Temp;Humidity;BMP_temperature;BMP_pressure;BME280_temperature;BME280_humidity;BME280_pressure;Samples;Min_cycle;Max_cycle;Signal;HPM_P1;HPM_P2
2022/10/10 00:01:33;;;;;;;8.03;6.10;;;;;;;11.77;92.79;98211.72;4114153;28;21054;-88
2022/10/10 00:03:36;;;;;;;7.90;7.07;;;;;;;11.77;92.81;98221.31;4110945;28;21254;-88
2022/10/10 00:05:39;;;;;;;10.20;6.80;;;;;;;11.75;93.55;98221.44;4111072;28;20651;-88
2022/10/10 00:07:43;;;;;;;9.43;6.40;;;;;;;11.74;93.09;98225.94;4111147;28;20636;-88
2022/10/10 00:09:46;;;;;;;7.83;6.53;;;;;;;11.72;93.50;98215.59;4111420;28;20632;-87
2022/10/10 00:11:49;;;;;;;9.40;6.27;;;;;;;11.72;93.66;98226.06;4094154;28;20636;-88
2022/10/10 00:13:52;;;;;;;8.10;6.57;;;;;;;11.71;93.46;98220.94;4110635;28;20684;-88
2022/10/10 00:15:55;;;;;;;9.37;6.50;;;;;;;11.72;92.74;98217.38;4110718;28;21479;-87
2022/10/10 00:18:00;;;;;;;12.13;6.90;;;;;;;11.71;92.91;98220.94;4110036;28;21286;-88
2022/10/10 00:20:03;;;;;;;8.10;6.17;;;;;;;11.68;94.35;98223.75;4108747;28;21214;-88
2022/10/10 00:22:06;;;;;;;10.60;6.40;;;;;;;11.66;92.85;98221.25;4109141;28;21140;-88
2022/10/10 00:24:09;;;;;;;10.63;7.20;;;;;;;11.64;92.95;98222.34;4110989;28;20624;-88
2022/10/10 00:26:12;;;;;;;9.60;6.57;;;;;;;11.65;92.81;98219.59;4108965;28;20624;-88
2022/10/10 00:28:21;;;;;;;8.87;5.93;;;;;;;11.63;93.79;98211.03;4109358;28;20640;-88
2022/10/10 00:30:24;;;;;;;7.13;5.87;;;;;;;11.62;93.15;98217.22;4109319;28;20800;-88
2022/10/10 00:32:27;;;;;;;8.00;6.30;;;;;;;11.61;94.66;98222.53;4108022;28;20645;-88
2022/10/10 00:34:31;;;;;;;9.43;6.10;;;;;;;11.59;93.96;98206.97;4096710;29;21201;-88
2022/10/10 00:36:34;;;;;;;8.23;6.00;;;;;;;11.59;94.25;98206.97;4093431;28;20991;-88
2022/10/10 00:38:37;;;;;;;7.93;6.40;;;;;;;11.58;92.78;98209.69;4109840;28;20683;-87
2022/10/10 00:40:45;;;;;;;7.03;5.80;;;;;;;11.60;92.94;98211.25;4095548;28;21223;-88
2022/10/10 00:42:48;;;;;;;7.10;6.40;;;;;;;11.61;94.91;98206.88;4120130;28;20636;-88
2022/10/10 00:45:30;;;;;;;8.57;6.27;;;;;;;11.60;94.07;98205.19;4127170;28;20634;-88
2022/10/10 00:47:33;;;;;;;7.77;6.00;;;;;;;11.59;93.03;98206.13;4093670;28;21027;-88
2022/10/10 00:49:42;;;;;;;9.73;6.57;;;;;;;11.58;94.71;98207.09;4112307;28;20673;-88
2022/10/10 00:51:46;;;;;;;11.57;6.40;;;;;;;11.57;93.88;98206.22;4123845;28;20630;-88
2022/10/10 00:53:51;;;;;;;8.50;5.60;;;;;;;11.60;92.77;98207.81;4109326;28;20652;-88
2022/10/10 00:55:54;;;;;;;9.53;7.23;;;;;;;11.55;93.04;98218.56;4105627;28;21273;-89
2022/10/10 00:57:57;;;;;;;8.90;6.30;;;;;;;11.54;93.20;98203.84;4109398;28;21057;-88
2022/10/10 01:00:00;;;;;;;8.07;5.70;;;;;;;11.55;94.14;98210.72;4112134;28;20660;-88
2022/10/10 01:02:04;;;;;;;8.70;5.80;;;;;;;11.56;95.08;98208.94;4109527;28;20695;-87
2022/10/10 01:04:29;;;;;;;9.73;6.17;;;;;;;11.57;93.71;98208.84;4109705;28;20652;-88
2022/10/10 01:06:34;;;;;;;6.93;5.80;;;;;;;11.55;94.57;98202.91;4110601;28;20623;-88
2022/10/10 01:08:37;;;;;;;6.80;6.07;;;;;;;11.54;94.55;98197.78;4110424;28;20636;-87
2022/10/10 01:10:49;;;;;;;10.70;5.87;;;;;;;11.55;93.37;98196.84;4095440;28;21095;-88
2022/10/10 01:13:11;;;;;;;7.30;6.10;;;;;;;11.56;93.20;98193.28;4110604;28;21104;-88
2022/10/10 01:15:19;;;;;;;8.30;6.20;;;;;;;11.57;95.55;98192.34;4108158;28;21282;-88
2022/10/10 01:17:26;;;;;;;8.83;6.70;;;;;;;11.58;93.45;98196.63;4111869;28;20702;-88
2022/10/10 01:20:09;;;;;;;9.17;6.00;;;;;;;11.57;93.26;98200.19;4093041;28;20661;-88
2022/10/10 01:22:21;;;;;;;7.87;5.60;;;;;;;11.58;94.09;98199.25;4090843;28;20643;-88
2022/10/10 01:24:37;;;;;;;7.90;5.87;;;;;;;11.58;94.90;98194.03;4106829;28;20632;-88
2022/10/10 01:27:18;;;;;;;7.57;6.00;;;;;;;11.58;95.66;98196.63;4109009;28;20727;-88
2022/10/10 01:29:27;;;;;;;8.10;6.50;;;;;;;11.55;94.41;98187.22;4094265;28;20641;-87
2022/10/10 01:31:31;;;;;;;9.93;6.20;;;;;;;11.55;95.24;98186.41;4091582;28;21291;-88
2022/10/10 01:33:43;;;;;;;6.00;5.20;;;;;;;11.56;94.14;98190.66;4103610;28;20752;-87
2022/10/10 01:35:50;;;;;;;8.83;5.80;;;;;;;11.58;94.90;98186.19;4098825;28;20639;-88
2022/10/10 01:37:59;;;;;;;7.87;6.00;;;;;;;11.59;94.80;98191.31;4093666;28;20747;-88
2022/10/10 01:40:09;;;;;;;7.63;6.10;;;;;;;11.60;95.22;98189.50;4094763;28;20653;-88
2022/10/10 01:42:16;;;;;;;10.57;6.20;;;;;;;11.59;94.77;98187.84;4112236;28;20670;-88
2022/10/10 01:44:22;;;;;;;11.30;6.10;;;;;;;11.63;95.64;98184.06;4085773;28;20653;-88
2022/10/10 01:46:26;;;;;;;7.70;6.43;;;;;;;11.60;94.52;98173.84;4110444;28;20727;-87
2022/10/10 01:48:30;;;;;;;7.80;6.27;;;;;;;11.60;94.40;98179.91;4105841;28;20616;-88
2022/10/10 01:50:42;;;;;;;8.43;6.30;;;;;;;11.61;94.01;98186.78;4092060;28;20625;-88
2022/10/10 01:52:52;;;;;;;7.13;6.30;;;;;;;11.63;93.51;98178.84;4105686;28;20686;-88
2022/10/10 01:55:10;;;;;;;9.33;5.90;;;;;;;11.61;94.58;98178.97;4107092;28;20667;-88
2022/10/10 01:57:20;;;;;;;9.40;6.67;;;;;;;11.60;93.24;98179.91;4114591;28;20640;-88
2022/10/10 01:59:34;;;;;;;9.43;6.10;;;;;;;11.61;95.66;98180.75;4094411;28;20696;-88
2022/10/10 02:01:42;;;;;;;7.63;6.50;;;;;;;11.59;95.04;98174.78;4112358;28;20627;-88
2022/10/10 02:03:47;;;;;;;9.63;6.00;;;;;;;11.59;93.72;98177.38;4110949;28;21234;-88
2022/10/10 02:05:53;;;;;;;8.60;6.50;;;;;;;11.59;94.22;98182.59;4117740;28;20722;-88
2022/10/10 02:07:58;;;;;;;7.53;6.17;;;;;;;11.58;95.20;98173.13;4110660;28;20630;-88
2022/10/10 02:10:03;;;;;;;8.13;6.50;;;;;;;11.57;96.21;98179.28;4116916;28;21249;-88
2022/10/10 02:12:08;;;;;;;7.17;6.30;;;;;;;11.58;94.27;98175.75;4132774;28;20639;-88
2022/10/10 02:14:15;;;;;;;8.20;6.73;;;;;;;11.60;94.60;98173.84;4109738;28;21084;-88
2022/10/10 02:16:23;;;;;;;8.93;6.43;;;;;;;11.62;95.86;98177.16;4116272;28;20647;-88
2022/10/10 02:18:29;;;;;;;10.90;6.60;;;;;;;11.61;94.66;98170.28;4112127;28;20662;-88
2022/10/10 02:20:32;;;;;;;8.27;6.67;;;;;;;11.62;94.84;98162.34;4106951;28;20633;-88
2022/10/10 02:22:37;;;;;;;6.83;6.13;;;;;;;11.62;95.19;98161.50;4109982;28;20636;-88
2022/10/10 02:24:40;;;;;;;7.97;6.47;;;;;;;11.64;95.51;98165.69;4106971;28;20664;-89
2022/10/10 02:26:45;;;;;;;8.50;6.13;;;;;;;11.65;94.84;98159.53;4112816;28;20654;-88
2022/10/10 02:28:52;;;;;;;6.60;5.90;;;;;;;11.66;95.45;98173.41;4111842;28;20697;-88
2022/10/10 02:30:59;;;;;;;9.23;5.80;;;;;;;11.66;95.09;98158.56;4095655;28;20683;-88
2022/10/10 02:33:05;;;;;;;10.80;7.37;;;;;;;11.68;94.62;98169.75;4113678;28;20720;-88
2022/10/10 02:35:10;;;;;;;7.07;6.20;;;;;;;11.68;94.32;98166.28;4109420;28;20636;-88
2022/10/10 02:37:15;;;;;;;6.80;6.10;;;;;;;11.66;95.46;98168.19;4112221;28;20743;-88
2022/10/10 02:39:21;;;;;;;9.10;6.23;;;;;;;11.64;95.19;98165.69;4115914;28;20651;-88
2022/10/10 02:41:25;;;;;;;7.10;6.10;;;;;;;11.65;95.13;98172.59;4117515;28;20666;-89
2022/10/10 02:43:28;;;;;;;7.77;6.33;;;;;;;11.64;96.51;98167.47;4099162;28;20636;-88
2022/10/10 02:45:32;;;;;;;8.03;6.23;;;;;;;11.65;95.37;98171.72;4115094;28;20739;-88
2022/10/10 02:47:35;;;;;;;8.70;6.10;;;;;;;11.66;95.11;98178.63;4124755;28;20692;-88
2022/10/10 02:49:40;;;;;;;7.93;5.80;;;;;;;11.66;95.92;98181.25;4114738;28;21056;-88
2022/10/10 02:51:43;;;;;;;9.23;6.30;;;;;;;11.66;96.69;98181.25;4114357;28;20651;-88
2022/10/10 02:53:46;;;;;;;6.30;5.70;;;;;;;11.64;95.39;98178.75;4108432;28;20628;-88
2022/10/10 02:55:49;;;;;;;10.07;6.60;;;;;;;11.64;95.98;98180.53;4127805;28;20623;-88
2022/10/10 02:57:52;;;;;;;7.80;6.17;;;;;;;11.64;95.17;98180.53;4113886;28;20648;-88
2022/10/10 02:59:56;;;;;;;9.23;6.90;;;;;;;11.68;95.22;98184.56;4113934;28;20679;-88
2022/10/10 03:01:59;;;;;;;8.00;6.00;;;;;;;11.66;95.74;98179.47;4095730;28;20637;-88
2022/10/10 03:04:02;;;;;;;8.90;6.30;;;;;;;11.68;94.43;98182.81;4097272;28;20663;-88
2022/10/10 03:06:07;;;;;;;7.40;6.13;;;;;;;11.68;94.30;98180.19;4093387;28;21726;-88
2022/10/10 03:08:10;;;;;;;8.93;6.20;;;;;;;11.68;94.02;98168.91;4095829;28;21211;-88
2022/10/10 03:10:13;;;;;;;8.37;6.90;;;;;;;11.68;94.90;98176.75;4126241;28;20681;-89
2022/10/10 03:12:16;;;;;;;6.63;5.93;;;;;;;11.69;94.93;98170.59;4109688;28;20667;-88
2022/10/10 03:14:20;;;;;;;8.37;5.90;;;;;;;11.70;94.14;98170.47;4112351;28;20735;-88
2022/10/10 03:16:23;;;;;;;11.57;6.77;;;;;;;11.71;94.74;98171.28;4109205;28;20696;-88
2022/10/10 03:18:25;;;;;;;10.03;6.50;;;;;;;11.70;96.34;98167.84;4095606;28;21030;-89
2022/10/10 03:20:28;;;;;;;8.93;5.93;;;;;;;11.69;94.91;98171.41;4096965;28;20689;-88
2022/10/10 03:22:33;;;;;;;8.10;6.07;;;;;;;11.69;94.87;98170.59;4110965;28;20687;-88
2022/10/10 03:24:36;;;;;;;7.90;5.97;;;;;;;11.68;94.57;98172.38;4123189;28;20634;-88
2022/10/10 03:26:39;;;;;;;10.80;6.47;;;;;;;11.69;94.33;98166.19;4108054;28;21244;-88
2022/10/10 03:28:42;;;;;;;8.90;6.00;;;;;;;11.70;95.33;98180.06;4108753;28;20655;-88
2022/10/10 03:30:46;;;;;;;10.80;5.70;;;;;;;11.69;95.37;98176.63;4092468;28;20629;-88
2022/10/10 03:32:48;;;;;;;8.20;6.30;;;;;;;11.70;94.27;98182.69;4115524;28;20639;-88
2022/10/10 03:34:52;;;;;;;7.67;6.37;;;;;;;11.69;96.29;98178.41;4093779;29;20634;-88
2022/10/10 03:36:55;;;;;;;8.53;6.30;;;;;;;11.67;96.09;98175.09;4112820;28;20631;-89
2022/10/10 03:38:59;;;;;;;7.30;6.03;;;;;;;11.66;95.08;98178.63;4119899;28;20635;-88
2022/10/10 03:41:02;;;;;;;10.63;6.20;;;;;;;11.66;95.42;98178.63;4107935;28;21146;-88
2022/10/10 03:43:07;;;;;;;7.13;5.80;;;;;;;11.67;96.18;98175.91;4094560;29;20691;-88
2022/10/10 03:45:10;;;;;;;8.33;6.57;;;;;;;11.68;95.89;98176.75;4113821;28;20639;-88
2022/10/10 03:47:13;;;;;;;9.83;6.73;;;;;;;11.68;95.03;98171.50;4112430;28;20630;-88
2022/10/10 03:49:16;;;;;;;13.17;7.97;;;;;;;11.65;94.87;98175.19;4106937;28;20640;-88
2022/10/10 03:51:20;;;;;;;12.60;6.90;;;;;;;11.65;94.60;98167.38;4111556;28;20620;-88
2022/10/10 03:53:22;;;;;;;8.03;6.27;;;;;;;11.65;95.26;98164.75;4110157;28;20667;-88
2022/10/10 03:55:27;;;;;;;8.07;6.30;;;;;;;11.66;95.77;98165.56;4094999;29;20621;-88
2022/10/10 03:57:30;;;;;;;6.60;5.73;;;;;;;11.67;95.12;98164.63;4100263;28;20633;-88
2022/10/10 03:59:33;;;;;;;9.73;6.30;;;;;;;11.66;96.90;98170.78;4128927;28;20826;-88
2022/10/10 04:01:36;;;;;;;8.10;6.60;;;;;;;11.66;94.86;98169.00;4114095;28;20723;-88
2022/10/10 04:03:39;;;;;;;7.20;6.30;;;;;;;11.64;94.54;98170.09;4104890;28;20755;-89
2022/10/10 04:05:43;;;;;;;7.30;6.60;;;;;;;11.62;96.82;98166.72;4127600;28;20701;-88
2022/10/10 04:07:46;;;;;;;7.00;6.23;;;;;;;11.60;96.43;98160.78;4090457;28;21215;-88
2022/10/10 04:09:49;;;;;;;10.53;6.10;;;;;;;11.56;95.16;98168.00;4107255;28;20736;-88
2022/10/10 04:11:53;;;;;;;10.93;6.33;;;;;;;11.53;95.61;98165.63;4109359;28;20640;-88
2022/10/10 04:13:56;;;;;;;8.33;6.33;;;;;;;11.53;95.24;98162.16;4110051;28;21295;-88
2022/10/10 04:15:59;;;;;;;8.10;6.20;;;;;;;11.53;96.68;98162.16;4109847;28;21539;-88
2022/10/10 04:18:02;;;;;;;8.33;6.30;;;;;;;11.53;96.76;98156.94;4110198;28;20644;-88
2022/10/10 04:20:06;;;;;;;8.33;6.67;;;;;;;11.52;94.63;98161.31;4120856;28;20650;-88
2022/10/10 04:22:09;;;;;;;13.83;6.87;;;;;;;11.50;94.59;98155.38;4111208;28;20636;-88
2022/10/10 04:24:13;;;;;;;7.97;6.23;;;;;;;11.51;95.96;98153.59;4107555;28;20682;-88
2022/10/10 04:26:16;;;;;;;11.57;6.83;;;;;;;11.50;95.56;98157.16;4111138;28;20679;-93
2022/10/10 04:28:21;;;;;;;7.50;6.70;;;;;;;11.49;95.90;98160.72;4110679;28;20706;-89
2022/10/10 04:30:24;;;;;;;7.80;6.37;;;;;;;11.49;96.09;98158.09;4110738;28;20632;-91
2022/10/10 04:32:27;;;;;;;9.83;6.60;;;;;;;11.48;96.42;98164.25;4094160;28;21023;-89
2022/10/10 04:34:30;;;;;;;9.30;6.67;;;;;;;11.47;96.70;98160.81;4113606;28;20674;-89
2022/10/10 04:36:33;;;;;;;6.87;6.13;;;;;;;11.48;96.36;98164.25;4096673;28;20692;-89
2022/10/10 04:38:37;;;;;;;9.30;6.70;;;;;;;11.46;95.99;98171.34;4112549;28;20631;-89
2022/10/10 04:40:40;;;;;;;10.10;6.77;;;;;;;11.45;95.51;98167.06;4095456;28;20680;-89
2022/10/10 04:42:42;;;;;;;9.37;6.30;;;;;;;11.45;94.40;98159.22;4092963;29;20680;-89
2022/10/10 04:44:47;;;;;;;11.70;6.80;;;;;;;11.41;95.60;98148.16;4125144;28;20647;-89
2022/10/10 04:46:50;;;;;;;10.10;6.53;;;;;;;11.41;95.04;98152.53;4108736;28;20657;-88
2022/10/10 04:48:53;;;;;;;7.57;6.87;;;;;;;11.41;96.32;98157.75;4109742;28;21251;-88
2022/10/10 04:50:58;;;;;;;10.07;6.60;;;;;;;11.40;94.71;98156.94;4105455;28;20620;-89
2022/10/10 04:53:01;;;;;;;7.93;6.30;;;;;;;11.38;95.70;98157.97;4128385;28;20697;-89
2022/10/10 04:55:05;;;;;;;8.17;6.70;;;;;;;11.36;94.78;98160.69;4095597;28;20666;-89
2022/10/10 04:57:08;;;;;;;10.80;7.67;;;;;;;11.37;94.65;98169.38;4098564;28;20744;-89
2022/10/10 04:59:11;;;;;;;8.47;7.30;;;;;;;11.36;95.68;98168.53;4109957;28;20631;-89
2022/10/10 05:01:15;;;;;;;9.47;7.20;;;;;;;11.36;95.20;98170.31;4111721;28;20648;-89
2022/10/10 05:03:19;;;;;;;9.17;6.90;;;;;;;11.36;95.71;98168.53;4110100;28;21265;-89
2022/10/10 05:05:22;;;;;;;8.17;6.70;;;;;;;11.34;95.45;98167.81;4127356;28;20646;-89
2022/10/10 05:07:25;;;;;;;9.20;6.80;;;;;;;11.35;96.97;98166.88;4110695;28;20656;-89
2022/10/10 05:09:28;;;;;;;7.63;6.83;;;;;;;11.36;95.89;98162.47;4109883;28;20636;-88
2022/10/10 05:11:31;;;;;;;8.27;7.00;;;;;;;11.33;96.20;98160.09;4093276;28;20626;-89
2022/10/10 05:13:34;;;;;;;11.17;7.10;;;;;;;11.29;95.58;98159.47;4102298;28;20636;-89
2022/10/10 05:15:38;;;;;;;9.07;7.10;;;;;;;11.29;96.75;98169.09;4088865;28;20633;-87
2022/10/10 05:17:42;;;;;;;9.37;7.50;;;;;;;11.30;94.86;98165.50;4121112;28;20691;-87
2022/10/10 05:19:45;;;;;;;10.00;7.43;;;;;;;11.29;95.69;98166.47;4110154;28;20683;-86
2022/10/10 05:21:48;;;;;;;10.03;6.97;;;;;;;11.27;96.99;98163.13;4110043;28;20710;-86
2022/10/10 05:23:51;;;;;;;8.90;7.63;;;;;;;11.28;95.87;98164.81;4109653;28;20632;-87
2022/10/10 05:25:54;;;;;;;11.60;7.20;;;;;;;11.31;96.69;98167.19;4108679;28;20641;-88
2022/10/10 05:27:57;;;;;;;11.03;7.70;;;;;;;11.31;97.47;98167.19;4110491;28;20628;-86
2022/10/10 05:30:00;;;;;;;14.63;7.17;;;;;;;11.31;97.24;98169.81;4109172;28;20644;-85
2022/10/10 05:32:03;;;;;;;9.40;7.70;;;;;;;11.30;96.87;98162.91;4110362;28;20735;-86
2022/10/10 05:34:14;;;;;;;12.00;7.10;;;;;;;11.27;95.69;98158.75;4112126;28;20623;-86
2022/10/10 05:36:17;;;;;;;8.80;7.37;;;;;;;11.26;95.00;98158.88;4110366;28;20656;-85
2022/10/10 05:38:20;;;;;;;8.13;7.30;;;;;;;11.27;95.42;98164.91;4122339;28;20635;-85
2022/10/10 05:40:23;;;;;;;12.00;7.43;;;;;;;11.26;96.66;98158.88;4113070;28;20744;-86
2022/10/10 05:42:26;;;;;;;11.47;8.27;;;;;;;11.26;97.19;98161.47;4097954;28;20679;-86
2022/10/10 05:44:30;;;;;;;15.13;8.17;;;;;;;11.26;97.30;98169.31;4112699;28;20671;-88
2022/10/10 05:46:33;;;;;;;10.43;8.20;;;;;;;11.27;96.34;98162.28;4122354;28;20674;-87
2022/10/10 05:48:36;;;;;;;10.10;7.80;;;;;;;11.25;96.25;98167.63;4110198;28;20643;-87
2022/10/10 05:50:47;;;;;;;10.47;8.33;;;;;;;11.26;95.99;98168.44;4110562;28;20644;-87
2022/10/10 05:52:50;;;;;;;10.10;7.90;;;;;;;11.27;97.07;98170.94;4104855;28;20698;-88
2022/10/10 05:54:53;;;;;;;10.30;8.27;;;;;;;11.27;97.58;98170.13;4104768;28;20683;-87
2022/10/10 05:56:56;;;;;;;13.70;7.90;;;;;;;11.25;97.05;98172.84;4110797;28;20668;-87
2022/10/10 05:58:59;;;;;;;10.33;8.20;;;;;;;11.24;97.24;98180.78;4109702;28;20727;-87
2022/10/10 06:01:05;;;;;;;9.53;7.00;;;;;;;11.21;95.68;98181.00;4127125;28;20650;-87
2022/10/10 06:03:12;;;;;;;10.07;8.50;;;;;;;11.20;96.24;98185.38;4099580;28;20649;-87
2022/10/10 06:05:15;;;;;;;11.10;7.87;;;;;;;11.20;95.75;98187.16;4113576;28;20667;-88
2022/10/10 06:07:20;;;;;;;10.33;7.70;;;;;;;11.19;95.39;98188.94;4115965;28;20720;-87
2022/10/10 06:09:23;;;;;;;15.40;8.67;;;;;;;11.22;97.11;98191.34;4129601;28;20643;-87
2022/10/10 06:11:26;;;;;;;10.00;8.37;;;;;;;11.24;96.58;98194.66;4107301;28;20683;-88
2022/10/10 06:13:29;;;;;;;11.53;8.03;;;;;;;11.24;96.26;98201.66;4109276;28;20636;-87
2022/10/10 06:15:32;;;;;;;12.03;7.97;;;;;;;11.24;95.62;98201.66;4104298;28;20632;-88
2022/10/10 06:17:35;;;;;;;10.40;8.13;;;;;;;11.21;96.18;98197.47;4110912;28;20635;-87
2022/10/10 06:19:38;;;;;;;13.93;8.60;;;;;;;11.21;96.27;98197.47;4109614;28;20777;-87
2022/10/10 06:21:41;;;;;;;10.23;7.97;;;;;;;11.21;96.45;98196.66;4105605;28;20694;-87
2022/10/10 06:23:45;;;;;;;11.73;8.23;;;;;;;11.23;97.47;98205.22;4108280;28;20698;-87
2022/10/10 06:25:51;;;;;;;9.07;7.63;;;;;;;11.23;96.28;98206.06;4085133;28;20669;-87
2022/10/10 06:27:54;;;;;;;11.03;8.67;;;;;;;11.28;97.42;98203.97;4103552;28;20771;-87
2022/10/10 06:29:57;;;;;;;15.43;8.17;;;;;;;11.30;97.79;98208.13;4123896;28;21341;-88
2022/10/10 06:32:00;;;;;;;10.00;7.87;;;;;;;11.34;96.55;98208.75;4105772;28;20628;-87
2022/10/10 06:34:03;;;;;;;12.00;8.27;;;;;;;11.41;96.59;98207.38;4094277;28;21228;-88
2022/10/10 06:36:08;;;;;;;12.70;9.13;;;;;;;11.46;96.38;98215.75;4110038;28;20655;-87
2022/10/10 06:38:11;;;;;;;15.43;9.17;;;;;;;11.56;98.01;98214.16;4112059;28;20698;-87
2022/10/10 06:40:16;;;;;;;12.50;7.73;;;;;;;11.65;96.04;98214.38;4098464;28;20633;-88
2022/10/10 06:42:19;;;;;;;10.83;7.83;;;;;;;11.71;96.50;98213.91;4108769;28;20734;-88
2022/10/10 06:44:29;;;;;;;14.57;8.87;;;;;;;11.93;97.97;98214.91;4094752;28;22090;-87
2022/10/10 06:46:36;;;;;;;11.57;9.50;;;;;;;12.05;95.95;98224.47;4108494;28;21069;-87
2022/10/10 06:48:39;;;;;;;10.07;8.63;;;;;;;12.18;96.17;98227.03;4108675;28;20754;-87
2022/10/10 06:50:42;;;;;;;15.43;8.47;;;;;;;12.26;95.55;98233.38;4113831;28;20715;-87
2022/10/10 06:52:45;;;;;;;10.90;8.47;;;;;;;12.26;95.07;98230.78;4108775;28;20632;-87
2022/10/10 06:54:48;;;;;;;10.23;8.60;;;;;;;12.24;95.33;98240.53;4113361;28;20719;-88
2022/10/10 06:56:53;;;;;;;11.90;8.93;;;;;;;12.23;95.82;98233.59;4111517;28;20692;-87
2022/10/10 06:58:56;;;;;;;12.83;8.83;;;;;;;12.21;94.04;98235.50;4107553;28;21246;-87
2022/10/10 07:01:00;;;;;;;9.57;8.57;;;;;;;12.17;94.89;98244.50;4108682;28;20632;-87
2022/10/10 07:03:03;;;;;;;9.27;8.10;;;;;;;12.18;95.65;98240.97;4108515;28;20763;-87
2022/10/10 07:05:07;;;;;;;11.20;8.47;;;;;;;12.18;94.77;98246.19;4113980;28;20698;-87
2022/10/10 07:07:10;;;;;;;15.37;8.93;;;;;;;12.20;94.79;98257.38;4114667;28;20667;-87
2022/10/10 07:09:13;;;;;;;11.37;8.00;;;;;;;12.21;95.75;98256.44;4109836;28;20984;-87
2022/10/10 07:11:16;;;;;;;11.23;7.63;;;;;;;12.23;95.88;98244.91;4111195;28;20731;-87
2022/10/10 07:13:21;;;;;;;12.70;9.10;;;;;;;12.25;95.97;98240.41;4092049;28;20681;-87
2022/10/10 07:15:24;;;;;;;16.60;8.70;;;;;;;12.26;96.21;98238.63;4105768;28;20676;-87
2022/10/10 07:17:27;;;;;;;13.77;9.37;;;;;;;12.32;96.09;98253.88;4109018;28;21281;-89
2022/10/10 07:19:31;;;;;;;11.60;9.30;;;;;;;12.61;97.11;98245.53;4107952;28;20643;-88
2022/10/10 07:21:34;;;;;;;13.83;9.67;;;;;;;13.04;96.31;98263.22;4127895;28;20631;-89
2022/10/10 07:23:38;;;;;;;11.27;9.10;;;;;;;13.40;95.60;98260.41;4096758;28;20692;-89
2022/10/10 07:25:43;;;;;;;9.70;8.20;;;;;;;13.67;94.15;98267.81;4092566;28;21071;-89
2022/10/10 07:27:46;;;;;;;11.90;8.50;;;;;;;13.90;93.26;98269.47;4092961;28;20637;-89
2022/10/10 07:29:50;;;;;;;10.33;8.00;;;;;;;14.18;93.11;98264.56;4093585;28;20645;-89
2022/10/10 07:31:54;;;;;;;9.37;8.13;;;;;;;14.44;91.45;98265.09;4108865;28;20648;-87
2022/10/10 07:33:57;;;;;;;9.60;7.83;;;;;;;14.57;90.89;98271.00;4095650;28;20644;-88
2022/10/10 07:36:00;;;;;;;8.80;7.90;;;;;;;14.81;90.00;98285.63;4099127;28;20661;-88
2022/10/10 07:38:03;;;;;;;11.40;8.00;;;;;;;14.94;89.56;98276.56;4093355;28;20686;-91
2022/10/10 07:40:08;;;;;;;13.73;8.70;;;;;;;15.03;88.56;98280.25;4113497;28;21227;-92
2022/10/10 07:42:11;;;;;;;11.27;7.93;;;;;;;15.21;88.44;98274.31;4097636;28;20641;-92
2022/10/10 07:44:14;;;;;;;9.80;7.67;;;;;;;15.34;87.00;98281.03;4115060;28;20647;-92
2022/10/10 07:46:20;;;;;;;11.33;7.93;;;;;;;15.54;86.26;98284.63;4092418;28;20646;-92
2022/10/10 07:48:24;;;;;;;11.50;8.27;;;;;;;15.77;88.57;98285.16;4112037;28;20748;-92
2022/10/10 07:50:27;;;;;;;8.90;8.00;;;;;;;16.10;87.11;98290.09;4095963;28;20680;-92
2022/10/10 07:52:30;;;;;;;8.73;7.80;;;;;;;16.41;86.86;98286.50;4114093;28;20685;-91
2022/10/10 07:54:33;;;;;;;9.00;7.80;;;;;;;16.41;86.52;98282.06;4093785;29;20698;-92
2022/10/10 07:56:36;;;;;;;11.63;8.93;;;;;;;16.43;88.90;98280.13;4097447;28;20637;-91
2022/10/10 07:58:42;;;;;;;11.77;8.53;;;;;;;16.40;89.78;98287.47;4107054;28;21231;-91
2022/10/10 08:00:45;;;;;;;10.20;8.17;;;;;;;16.39;88.40;98284.00;4119750;28;20719;-92
2022/10/10 08:02:51;;;;;;;10.90;8.30;;;;;;;16.44;89.16;98288.88;4103892;28;20673;-92
2022/10/10 08:04:54;;;;;;;9.10;8.10;;;;;;;16.67;87.66;98293.75;4091659;28;20644;-92
2022/10/10 08:06:57;;;;;;;11.40;8.10;;;;;;;16.76;87.32;98288.47;4115810;28;20705;-92
2022/10/10 08:09:00;;;;;;;9.07;7.63;;;;;;;16.66;87.11;98292.09;4110786;28;20643;-90
2022/10/10 08:11:04;;;;;;;11.30;8.87;;;;;;;16.55;86.87;98292.19;4121684;28;20700;-91
2022/10/10 08:13:07;;;;;;;12.13;9.60;;;;;;;16.48;87.33;98284.97;4103739;28;20631;-91
2022/10/10 08:15:10;;;;;;;9.27;8.23;;;;;;;16.43;87.00;98295.09;4086263;28;20670;-89
2022/10/10 08:17:13;;;;;;;9.47;7.90;;;;;;;16.42;88.25;98309.22;4091638;28;20636;-91
2022/10/10 08:19:18;;;;;;;14.03;9.17;;;;;;;16.41;89.52;98291.78;4105147;28;20640;-91
2022/10/10 08:21:21;;;;;;;8.43;7.53;;;;;;;16.29;88.72;98293.66;4103601;28;20678;-91
2022/10/10 08:23:24;;;;;;;10.00;7.70;;;;;;;16.19;89.18;98287.53;4108924;28;21286;-90
2022/10/10 08:25:27;;;;;;;12.23;8.17;;;;;;;16.15;88.76;98296.66;4110043;28;20686;-91
2022/10/10 08:27:30;;;;;;;10.40;7.47;;;;;;;16.09;89.46;98296.38;4091991;28;20689;-91
2022/10/10 08:29:33;;;;;;;10.80;7.87;;;;;;;16.02;88.85;98282.88;4110320;28;20645;-91
2022/10/10 08:31:36;;;;;;;10.77;7.97;;;;;;;16.02;89.16;98284.69;4111966;28;20643;-91
2022/10/10 08:33:41;;;;;;;13.30;8.90;;;;;;;16.03;89.42;98276.66;4084884;28;21231;-91
2022/10/10 08:35:46;;;;;;;10.50;8.77;;;;;;;16.07;87.52;98279.84;4108225;28;21317;-90
2022/10/10 08:37:49;;;;;;;13.53;8.30;;;;;;;16.20;88.29;98276.00;4088374;28;20651;-91
2022/10/10 08:39:52;;;;;;;9.90;8.50;;;;;;;16.58;88.41;98278.75;4109455;28;20751;-91
2022/10/10 08:41:57;;;;;;;10.50;8.40;;;;;;;16.68;88.01;98280.44;4110014;28;20642;-91
2022/10/10 08:44:02;;;;;;;10.77;9.30;;;;;;;16.61;87.87;98279.34;4108865;28;20661;-90
2022/10/10 08:46:10;;;;;;;11.23;7.73;;;;;;;16.69;88.01;98279.47;4109341;28;20734;-90
2022/10/10 08:48:15;;;;;;;13.73;8.83;;;;;;;16.63;87.75;98280.03;4099780;28;20649;-91
2022/10/10 08:50:22;;;;;;;10.30;8.00;;;;;;;16.52;87.17;98277.53;4093127;28;20702;-90
2022/10/10 08:52:30;;;;;;;10.70;8.70;;;;;;;16.45;88.70;98272.09;4109807;28;20644;-90
2022/10/10 08:54:34;;;;;;;8.80;7.80;;;;;;;16.45;87.58;98272.94;4110592;28;20641;-90
2022/10/10 08:56:38;;;;;;;10.40;7.97;;;;;;;16.53;89.08;98275.72;4102687;28;20639;-90
2022/10/10 08:58:45;;;;;;;10.00;7.97;;;;;;;16.64;88.35;98281.69;4109357;28;21262;-90
2022/10/10 09:00:50;;;;;;;12.90;8.80;;;;;;;16.66;87.58;98285.00;4109235;28;20635;-90
2022/10/10 09:02:55;;;;;;;9.23;8.27;;;;;;;16.91;90.37;98292.38;4105714;28;20680;-90
2022/10/10 09:04:59;;;;;;;11.80;8.70;;;;;;;17.22;88.78;98296.56;4100298;28;20694;-89
2022/10/10 09:07:13;;;;;;;11.37;8.93;;;;;;;17.53;88.86;98302.34;4103056;28;20661;-90
2022/10/10 09:09:26;;;;;;;9.20;8.07;;;;;;;17.77;86.60;98294.78;4110574;28;20738;-90
2022/10/10 09:11:42;;;;;;;9.10;7.97;;;;;;;18.02;87.19;98288.84;4109741;28;20994;-88
2022/10/10 09:13:49;;;;;;;8.47;6.90;;;;;;;18.08;84.88;98285.63;4126347;28;20732;-92
2022/10/10 09:15:55;;;;;;;9.27;7.67;;;;;;;18.11;84.74;98280.84;4112621;28;20674;-92
2022/10/10 09:18:04;;;;;;;8.87;7.53;;;;;;;18.10;84.28;98291.56;4094447;28;20642;-92
2022/10/10 09:20:18;;;;;;;8.87;7.63;;;;;;;18.22;84.15;98290.44;4107914;28;20712;-92
2022/10/10 09:22:23;;;;;;;10.17;8.10;;;;;;;18.41;84.38;98299.09;4092180;28;20751;-92
2022/10/10 09:24:32;;;;;;;8.77;7.83;;;;;;;18.45;85.41;98298.66;4123355;28;20659;-92
2022/10/10 09:26:38;;;;;;;9.77;7.60;;;;;;;18.42;85.55;98301.59;4111471;28;20646;-91
2022/10/10 09:28:45;;;;;;;9.70;7.17;;;;;;;18.56;86.62;98305.53;4094183;28;20628;-91
2022/10/10 09:30:51;;;;;;;8.40;7.50;;;;;;;18.69;84.66;98300.75;4111928;28;20649;-91
2022/10/10 09:32:58;;;;;;;9.20;7.27;;;;;;;18.89;83.75;98303.91;4112975;28;20671;-91
2022/10/10 09:35:07;;;;;;;8.03;7.13;;;;;;;18.99;84.11;98309.13;4114899;28;20628;-91
2022/10/10 09:37:14;;;;;;;8.50;7.10;;;;;;;19.14;82.53;98312.91;4112820;28;20676;-92
2022/10/10 09:39:42;;;;;;;7.30;6.33;;;;;;;19.14;84.00;98320.84;4110021;28;21231;-91
2022/10/10 09:41:47;;;;;;;8.37;6.47;;;;;;;19.19;85.23;98314.13;4111035;28;20744;-91
2022/10/10 09:43:55;;;;;;;10.07;6.30;;;;;;;19.12;84.22;98313.06;4096728;28;20648;-91
2022/10/10 09:45:58;;;;;;;8.57;7.03;;;;;;;19.25;84.36;98320.66;4093841;28;21242;-92